createdAt,value
2022-09-27T00:01:40.722Z,98020.22
2022-09-27T00:04:30.187Z,98019.25
2022-09-27T00:07:18.310Z,98024.25
2022-09-27T00:10:07.300Z,98019.25
2022-09-27T00:12:55.733Z,97994.97
2022-09-27T00:15:43.780Z,98017.34
2022-09-27T00:18:32.937Z,98018.91
2022-09-27T00:21:22.331Z,98019.97
2022-09-27T00:24:13.436Z,98012.16
2022-09-27T00:27:01.477Z,98010.13
2022-09-27T00:29:49.789Z,98014.84
2022-09-27T00:32:37.889Z,98011.78
2022-09-27T00:35:25.935Z,98003.41
2022-09-27T00:38:15.669Z,98001.56
2022-09-27T00:41:03.858Z,98004.69
2022-09-27T00:43:54.227Z,97999.91
2022-09-27T00:46:47.404Z,98000.00
2022-09-27T00:49:40.932Z,97997.53
2022-09-27T00:52:34.227Z,98002.25
2022-09-27T00:55:27.591Z,97989.41
2022-09-27T00:58:19.623Z,97999.84
2022-09-27T01:01:10.712Z,97995.03
2022-09-27T01:04:04.821Z,98004.94
2022-09-27T01:06:52.978Z,98001.34
2022-09-27T01:09:41.615Z,97995.44
2022-09-27T01:12:43.470Z,97996.97
2022-09-27T01:15:41.090Z,97990.91
2022-09-27T01:18:35.891Z,98000.94
2022-09-27T01:21:38.480Z,97998.91
2022-09-27T01:24:47.142Z,97997.69
2022-09-27T01:28:10.667Z,97998.19
2022-09-27T01:31:05.225Z,97997.47
2022-09-27T01:34:03.618Z,97994.66
2022-09-27T01:36:57.447Z,97998.47
2022-09-27T01:39:53.081Z,97984.56
2022-09-27T01:43:00.167Z,97994.59
2022-09-27T01:45:56.615Z,97996.25
2022-09-27T01:49:27.539Z,97995.03
2022-09-27T01:52:19.782Z,97998.94
2022-09-27T01:55:15.483Z,97993.50
2022-09-27T01:58:28.396Z,98001.63
2022-09-27T02:01:22.345Z,97998.13
2022-09-27T02:04:18.412Z,97999.38
2022-09-27T02:07:33.130Z,97997.63
2022-09-27T02:10:24.684Z,97995.38
2022-09-27T02:13:20.136Z,97992.53
2022-09-27T02:16:23.653Z,97987.19
2022-09-27T02:19:19.599Z,97996.03
2022-09-27T02:22:16.250Z,97992.03
2022-09-27T02:25:14.648Z,97986.53
2022-09-27T02:28:11.673Z,97994.72
2022-09-27T02:31:00.031Z,98001.34
2022-09-27T02:33:59.096Z,98002.66
2022-09-27T02:36:48.258Z,97996.25
2022-09-27T02:39:36.481Z,97997.06
2022-09-27T02:42:29.416Z,98006.00
2022-09-27T02:45:19.658Z,98012.31
2022-09-27T02:48:20.871Z,98008.03
2022-09-27T02:51:21.285Z,98012.31
2022-09-27T02:54:20.436Z,98012.72
2022-09-27T02:57:57.928Z,98008.44
2022-09-27T03:01:12.867Z,98016.75
2022-09-27T03:04:39.596Z,98020.19
2022-09-27T03:07:27.851Z,98026.81
2022-09-27T03:10:19.413Z,98022.47
2022-09-27T03:13:09.253Z,98025.69
2022-09-27T03:16:01.414Z,98029.09
2022-09-27T03:19:08.259Z,98034.28
2022-09-27T03:22:14.626Z,98032.56
2022-09-27T03:25:02.719Z,98044.34
2022-09-27T03:27:51.141Z,98040.13
2022-09-27T03:30:42.023Z,98043.53
2022-09-27T03:33:31.224Z,98046.28
2022-09-27T03:36:20.667Z,98049.84
2022-09-27T03:39:08.683Z,98062.00
2022-09-27T03:41:57.343Z,98052.69
2022-09-27T03:44:45.394Z,98051.47
2022-09-27T03:47:34.787Z,98060.91
2022-09-27T03:50:22.918Z,98058.53
2022-09-27T03:53:10.955Z,98064.38
2022-09-27T03:55:58.960Z,98059.34
2022-09-27T03:58:47.590Z,98052.00
2022-09-27T04:01:38.801Z,98065.56
2022-09-27T04:04:46.273Z,98064.88
2022-09-27T04:07:34.401Z,98075.41
2022-09-27T04:10:22.697Z,98084.09
2022-09-27T04:13:11.881Z,98080.59
2022-09-27T04:16:07.972Z,98085.31
2022-09-27T04:19:12.703Z,98086.13
2022-09-27T04:22:11.241Z,98089.31
2022-09-27T04:24:59.533Z,98094.00
2022-09-27T04:27:56.692Z,98100.75
2022-09-27T04:30:46.668Z,98095.63
2022-09-27T04:33:34.713Z,98105.44
2022-09-27T04:36:36.149Z,98108.97
2022-09-27T04:39:39.578Z,98105.78
2022-09-27T04:42:28.781Z,98111.63
2022-09-27T04:45:17.635Z,98120.22
2022-09-27T04:48:05.771Z,98118.25
2022-09-27T04:51:00.489Z,98113.59
2022-09-27T04:53:48.947Z,98116.41
2022-09-27T04:56:38.447Z,98121.06
2022-09-27T04:59:27.758Z,98121.53
2022-09-27T05:02:15.787Z,98130.13
2022-09-27T05:05:18.819Z,98130.22
2022-09-27T05:08:06.890Z,98142.03
2022-09-27T05:11:17.544Z,98133.81
2022-09-27T05:17:52.422Z,98149.66
2022-09-27T05:20:59.326Z,98025.69
2022-09-27T05:23:57.484Z,98145.66
2022-09-27T05:26:46.786Z,98155.91
2022-09-27T05:29:36.489Z,98165.28
2022-09-27T05:32:29.923Z,98166.50
2022-09-27T05:35:44.533Z,98166.53
2022-09-27T05:38:33.607Z,98175.94
2022-09-27T05:41:21.678Z,98177.81
2022-09-27T05:44:09.951Z,98180.50
2022-09-27T05:47:06.169Z,98182.81
2022-09-27T05:49:56.040Z,98188.22
2022-09-27T05:52:44.145Z,98190.31
2022-09-27T05:55:32.810Z,98197.38
2022-09-27T05:58:21.286Z,98193.81
2022-09-27T06:01:21.673Z,98196.19
2022-09-27T06:04:31.399Z,98195.72
2022-09-27T06:07:51.347Z,98205.34
2022-09-27T06:10:47.373Z,98204.97
2022-09-27T06:13:37.015Z,98205.31
2022-09-27T06:16:25.067Z,98202.41
2022-09-27T06:19:13.155Z,98209.94
2022-09-27T06:22:02.547Z,98211.47
2022-09-27T06:25:00.083Z,98211.97
2022-09-27T06:27:56.842Z,98202.72
2022-09-27T06:30:51.502Z,98220.56
2022-09-27T06:33:59.145Z,98222.22
2022-09-27T06:36:51.550Z,98219.28
2022-09-27T06:39:42.436Z,98226.72
2022-09-27T06:42:53.029Z,98224.06
2022-09-27T06:45:57.160Z,98229.53
2022-09-27T06:49:05.084Z,98235.16
2022-09-27T06:51:56.663Z,98235.44
2022-09-27T06:54:46.021Z,98242.84
2022-09-27T06:57:51.445Z,98246.28
2022-09-27T07:00:39.939Z,98245.84
2022-09-27T07:03:59.755Z,98245.53
2022-09-27T07:07:17.199Z,98259.41
2022-09-27T07:10:10.112Z,98258.69
2022-09-27T07:12:59.954Z,98264.38
2022-09-27T07:15:48.060Z,98269.34
2022-09-27T07:18:36.782Z,98279.94
2022-09-27T07:21:25.004Z,98287.94
2022-09-27T07:24:13.317Z,98287.81
2022-09-27T07:27:04.124Z,98292.38
2022-09-27T07:29:52.517Z,98292.94
2022-09-27T07:32:40.946Z,98304.25
2022-09-27T07:35:31.385Z,98298.84
2022-09-27T07:38:20.674Z,98303.91
2022-09-27T07:41:10.928Z,98267.97
2022-09-27T07:44:00.480Z,98322.03
2022-09-27T07:46:50.557Z,98328.41
2022-09-27T07:49:40.613Z,98333.09
2022-09-27T07:52:44.374Z,98327.19
2022-09-27T07:55:53.193Z,98331.88
2022-09-27T07:58:44.920Z,98332.34
2022-09-27T08:01:34.605Z,98324.78
2022-09-27T08:04:22.803Z,98331.03
2022-09-27T08:07:14.240Z,98339.28
2022-09-27T08:10:05.190Z,98251.47
2022-09-27T08:12:54.393Z,98348.63
2022-09-27T08:15:42.390Z,98349.72
2022-09-27T08:18:32.335Z,98345.41
2022-09-27T08:21:32.447Z,98348.25
2022-09-27T08:24:33.006Z,98341.31
2022-09-27T08:27:32.920Z,98345.38
2022-09-27T08:30:23.873Z,98350.16
2022-09-27T08:33:12.010Z,98351.88
2022-09-27T08:36:03.362Z,98359.59
2022-09-27T08:38:51.493Z,98353.34
2022-09-27T08:41:48.525Z,98370.00
2022-09-27T08:44:44.966Z,98362.91
2022-09-27T08:47:43.538Z,98371.03
2022-09-27T08:50:38.960Z,98366.25
2022-09-27T08:53:34.889Z,98359.66
2022-09-27T08:56:24.155Z,98381.53
2022-09-27T08:59:15.702Z,98372.25
2022-09-27T09:02:05.919Z,98376.09
2022-09-27T09:04:58.605Z,98377.03
2022-09-27T09:08:04.287Z,98379.00
2022-09-27T09:11:15.980Z,98375.63
2022-09-27T09:14:22.220Z,98381.97
2022-09-27T09:17:22.828Z,98372.66
2022-09-27T09:20:54.912Z,98378.78
2022-09-27T09:24:23.951Z,98384.06
2022-09-27T09:27:22.810Z,98377.03
2022-09-27T09:30:22.521Z,98378.81
2022-09-27T09:33:22.954Z,98385.22
2022-09-27T09:36:17.221Z,98372.59
2022-09-27T09:39:11.192Z,98377.09
2022-09-27T09:42:08.585Z,98381.25
2022-09-27T09:45:02.948Z,98380.91
2022-09-27T09:47:58.351Z,98372.38
2022-09-27T09:50:49.430Z,98369.84
2022-09-27T09:53:43.606Z,98368.03
2022-09-27T09:56:47.521Z,98361.31
2022-09-27T09:59:41.226Z,98362.28
2022-09-27T10:02:36.116Z,98351.06
2022-09-27T10:05:30.737Z,98359.19
2022-09-27T10:08:24.606Z,98356.31
2022-09-27T10:11:41.043Z,98361.59
2022-09-27T10:14:33.531Z,98362.28
2022-09-27T10:17:34.242Z,98358.81
2022-09-27T10:20:29.750Z,98356.69
2022-09-27T10:23:21.076Z,98349.34
2022-09-27T10:26:40.282Z,98351.44
2022-09-27T10:29:37.212Z,98347.69
2022-09-27T10:32:31.351Z,98345.66
2022-09-27T10:35:45.262Z,98338.38
2022-09-27T10:38:55.949Z,98313.38
2022-09-27T10:41:51.674Z,98350.22
2022-09-27T10:44:52.946Z,98349.53
2022-09-27T10:47:49.129Z,98351.00
2022-09-27T10:50:59.531Z,98354.28
2022-09-27T10:54:20.432Z,98346.59
2022-09-27T10:57:22.581Z,98350.94
2022-09-27T11:00:23.595Z,98340.66
2022-09-27T11:03:17.453Z,98342.53
2022-09-27T11:06:28.036Z,98344.41
2022-09-27T11:09:20.287Z,98279.84
2022-09-27T11:12:13.192Z,98347.34
2022-09-27T11:15:06.026Z,98339.00
2022-09-27T11:18:04.371Z,98334.09
2022-09-27T11:20:58.136Z,98338.91
2022-09-27T11:24:01.073Z,98335.53
2022-09-27T11:27:00.964Z,98342.53
2022-09-27T11:30:08.818Z,98342.28
2022-09-27T11:33:34.109Z,98334.44
2022-09-27T11:36:35.633Z,98332.31
2022-09-27T11:39:36.280Z,98327.81
2022-09-27T11:42:41.276Z,98315.28
2022-09-27T11:46:14.193Z,98314.84
2022-09-27T11:49:15.154Z,98310.75
2022-09-27T11:52:16.742Z,98309.44
2022-09-27T11:55:32.501Z,98292.97
2022-09-27T11:58:27.989Z,98292.88
2022-09-27T12:01:34.657Z,98298.28
2022-09-27T12:04:38.335Z,98305.66
2022-09-27T12:07:37.935Z,98307.41
2022-09-27T12:10:26.269Z,98312.75
2022-09-27T12:13:27.055Z,98305.13
2022-09-27T12:16:18.753Z,98303.69
2022-09-27T12:19:18.115Z,98301.41
2022-09-27T12:22:53.912Z,98276.31
2022-09-27T12:25:38.718Z,98294.09
2022-09-27T12:28:41.854Z,98286.50
2022-09-27T12:31:35.674Z,98291.88
2022-09-27T12:34:31.720Z,98294.19
2022-09-27T12:37:25.144Z,98271.59
2022-09-27T12:40:20.161Z,98269.34
2022-09-27T12:43:18.310Z,98281.16
2022-09-27T12:46:25.364Z,98284.84
2022-09-27T12:49:19.434Z,98275.88
2022-09-27T12:52:12.230Z,98276.31
2022-09-27T12:55:24.001Z,98277.00
2022-09-27T12:58:25.219Z,98284.25
2022-09-27T13:01:27.097Z,98260.34
2022-09-27T13:04:38.073Z,98279.13
2022-09-27T13:07:52.162Z,98276.66
2022-09-27T13:10:49.694Z,98266.41
2022-09-27T13:13:49.143Z,98268.25
2022-09-27T13:16:44.638Z,98264.06
2022-09-27T13:19:43.170Z,98255.25
2022-09-27T13:22:38.626Z,98246.31
2022-09-27T13:25:56.018Z,98252.84
2022-09-27T13:29:24.853Z,98247.69
2022-09-27T13:32:20.819Z,98243.25
2022-09-27T13:35:29.011Z,98251.75
2022-09-27T13:38:25.186Z,98241.69
2022-09-27T13:41:18.056Z,98244.97
2022-09-27T13:44:32.090Z,98244.63
2022-09-27T13:47:32.169Z,98244.91
2022-09-27T13:50:26.979Z,98253.63
2022-09-27T13:53:31.057Z,98253.97
2022-09-27T13:56:49.808Z,98254.19
2022-09-27T13:59:44.244Z,98253.94
2022-09-27T14:03:11.031Z,98254.19
2022-09-27T14:06:08.456Z,98258.19
2022-09-27T14:09:00.614Z,98251.94
2022-09-27T14:11:53.561Z,98248.00
2022-09-27T14:14:43.294Z,98258.09
2022-09-27T14:17:33.023Z,98255.16
2022-09-27T14:20:38.663Z,98256.38
2022-09-27T14:23:29.876Z,98260.41
2022-09-27T14:26:26.141Z,98265.97
2022-09-27T14:29:17.652Z,98262.13
2022-09-27T14:32:09.156Z,98265.31
2022-09-27T14:35:32.603Z,98264.44
2022-09-27T14:38:37.037Z,98231.31
2022-09-27T14:41:37.157Z,98264.53
2022-09-27T14:44:28.252Z,98264.78
2022-09-27T14:47:19.815Z,98267.97
2022-09-27T14:50:19.938Z,98264.13
2022-09-27T14:53:24.493Z,98267.56
2022-09-27T14:56:17.949Z,98268.25
2022-09-27T14:59:11.643Z,98242.19
2022-09-27T15:02:01.729Z,98272.28
2022-09-27T15:04:51.661Z,98270.59
2022-09-27T15:07:40.229Z,98267.97
2022-09-27T15:10:31.761Z,98266.97
2022-09-27T15:13:20.728Z,98264.22
2022-09-27T15:16:13.070Z,98270.66
2022-09-27T15:19:03.769Z,98185.38
2022-09-27T15:21:51.663Z,98266.78
2022-09-27T15:24:41.884Z,98278.22
2022-09-27T15:27:31.435Z,98265.03
2022-09-27T15:30:29.512Z,98280.56
2022-09-27T15:33:21.388Z,98279.78
2022-09-27T15:36:10.925Z,98276.13
2022-09-27T15:39:09.044Z,98282.78
2022-09-27T15:42:12.538Z,98272.13
2022-09-27T15:45:01.781Z,98279.69
2022-09-27T15:47:51.214Z,98284.47
2022-09-27T15:50:40.983Z,98295.59
2022-09-27T15:53:43.739Z,98299.47
2022-09-27T15:56:31.788Z,98302.03
2022-09-27T15:59:22.427Z,98304.38
2022-09-27T16:02:17.440Z,98305.59
2022-09-27T16:05:06.106Z,98278.31
2022-09-27T16:07:54.352Z,98301.47
2022-09-27T16:10:45.226Z,98306.84
2022-09-27T16:13:33.540Z,98309.78
2022-09-27T16:16:23.165Z,98314.53
2022-09-27T16:19:12.517Z,98312.44
2022-09-27T16:22:03.369Z,98311.66
2022-09-27T16:24:51.261Z,98306.31
2022-09-27T16:27:39.270Z,98310.56
2022-09-27T16:30:29.767Z,98308.59
2022-09-27T16:33:17.848Z,98315.81
2022-09-27T16:36:14.258Z,98307.63
2022-09-27T16:39:04.835Z,98310.72
2022-09-27T16:41:53.152Z,98315.25
2022-09-27T16:44:41.046Z,98321.47
2022-09-27T16:47:29.125Z,98322.97
2022-09-27T16:50:35.049Z,98324.16
2022-09-27T16:53:24.382Z,98320.22
2022-09-27T16:56:12.682Z,98321.63
2022-09-27T16:59:02.878Z,98324.41
2022-09-27T17:01:50.864Z,98323.28
2022-09-27T17:04:38.766Z,98324.09
2022-09-27T17:07:26.659Z,98329.69
2022-09-27T17:10:17.098Z,98329.41
2022-09-27T17:13:04.967Z,98331.47
2022-09-27T17:15:53.334Z,98331.47
2022-09-27T17:18:41.628Z,98332.44
2022-09-27T17:21:30.401Z,98343.00
2022-09-27T17:24:20.279Z,98335.25
2022-09-27T17:27:09.544Z,98339.50
2022-09-27T17:29:57.423Z,98336.69
2022-09-27T17:32:45.372Z,98337.78
2022-09-27T17:35:33.360Z,98334.63
2022-09-27T17:38:21.534Z,98344.16
2022-09-27T17:41:11.379Z,98340.59
2022-09-27T17:44:02.242Z,98343.34
2022-09-27T17:47:11.300Z,98340.09
2022-09-27T17:50:16.788Z,98350.31
2022-09-27T17:53:04.653Z,98354.25
2022-09-27T17:55:53.886Z,98353.84
2022-09-27T17:58:46.744Z,98353.44
2022-09-27T18:01:38.168Z,98356.69
2022-09-27T18:04:26.179Z,98362.22
2022-09-27T18:07:14.048Z,98358.84
2022-09-27T18:10:01.944Z,98362.34
2022-09-27T18:12:49.902Z,98357.75
2022-09-27T18:15:37.890Z,98357.47
2022-09-27T18:18:28.119Z,98369.19
2022-09-27T18:21:21.654Z,98362.25
2022-09-27T18:24:10.854Z,98359.53
2022-09-27T18:26:59.699Z,98337.34
2022-09-27T18:29:48.334Z,98365.94
2022-09-27T18:32:36.218Z,98366.44
2022-09-27T18:35:28.479Z,98367.59
2022-09-27T18:38:16.353Z,98354.72
2022-09-27T18:41:08.518Z,98372.78
2022-09-27T18:43:58.795Z,98383.31
2022-09-27T18:46:47.108Z,98393.97
2022-09-27T18:49:35.016Z,98388.06
2022-09-27T18:52:24.394Z,98395.50
2022-09-27T18:55:12.307Z,98400.66
2022-09-27T18:58:00.334Z,98401.00
2022-09-27T19:00:48.199Z,98398.25
2022-09-27T19:03:36.366Z,98404.50
2022-09-27T19:06:24.834Z,98384.63
2022-09-27T19:09:14.153Z,98397.47
2022-09-27T19:12:02.962Z,98395.91
2022-09-27T19:14:52.419Z,98401.06
2022-09-27T19:17:40.313Z,98401.53
2022-09-27T19:20:29.563Z,98402.28
2022-09-27T19:23:17.868Z,98397.97
2022-09-27T19:26:09.827Z,98396.06
2022-09-27T19:28:58.735Z,98387.84
2022-09-27T19:31:46.783Z,98392.19
2022-09-27T19:34:34.956Z,98393.34
2022-09-27T19:37:22.813Z,98390.66
2022-09-27T19:40:10.757Z,98394.63
2022-09-27T19:43:00.049Z,98388.31
2022-09-27T19:45:48.067Z,98373.91
2022-09-27T19:48:36.737Z,98376.63
2022-09-27T19:51:26.894Z,98380.16
2022-09-27T19:54:15.050Z,98379.78
2022-09-27T19:57:02.894Z,98383.66
2022-09-27T19:59:52.125Z,98378.56
2022-09-27T20:02:40.115Z,98379.38
2022-09-27T20:05:28.004Z,98374.56
2022-09-27T20:08:15.885Z,98381.16
2022-09-27T20:11:06.761Z,98376.00
2022-09-27T20:13:54.946Z,98372.91
2022-09-27T20:16:44.212Z,98370.19
2022-09-27T20:19:32.128Z,98372.16
2022-09-27T20:22:20.183Z,98372.91
2022-09-27T20:25:09.141Z,98368.59
2022-09-27T20:27:57.042Z,98364.47
2022-09-27T20:30:56.693Z,98366.81
2022-09-27T20:33:49.465Z,98369.94
2022-09-27T20:36:39.727Z,98365.31
2022-09-27T20:39:27.657Z,98367.22
2022-09-27T20:42:15.615Z,98353.50
2022-09-27T20:45:03.994Z,98348.00
2022-09-27T20:47:51.885Z,98333.19
2022-09-27T20:50:41.151Z,98338.69
2022-09-27T20:53:29.596Z,98337.09
2022-09-27T20:56:19.448Z,98335.50
2022-09-27T20:59:14.063Z,98332.41
2022-09-27T21:02:02.832Z,98331.59
2022-09-27T21:04:50.975Z,98328.06
2022-09-27T21:07:40.197Z,98325.75
2022-09-27T21:10:28.066Z,98325.38
2022-09-27T21:13:16.008Z,98337.81
2022-09-27T21:16:05.724Z,98320.59
2022-09-27T21:18:55.253Z,98322.25
2022-09-27T21:21:43.269Z,98312.47
2022-09-27T21:24:32.511Z,98295.56
2022-09-27T21:27:20.341Z,98296.81
2022-09-27T21:30:09.328Z,98300.41
2022-09-27T21:32:57.871Z,98300.03
2022-09-27T21:35:51.007Z,98289.81
2022-09-27T21:38:40.061Z,98298.88
2022-09-27T21:41:29.451Z,98291.91
2022-09-27T21:44:17.323Z,98286.75
2022-09-27T21:47:05.324Z,98282.91
2022-09-27T21:49:53.243Z,98279.03
2022-09-27T21:52:41.156Z,98273.19
2022-09-27T21:55:29.211Z,98273.22
2022-09-27T21:58:18.765Z,98266.97
2022-09-27T22:01:08.070Z,98269.00
2022-09-27T22:03:56.906Z,98266.25
2022-09-27T22:06:44.977Z,98256.47
2022-09-27T22:09:32.875Z,98266.25
2022-09-27T22:12:21.289Z,98257.25
2022-09-27T22:15:11.080Z,98250.59
2022-09-27T22:18:00.113Z,98248.25
2022-09-27T22:20:48.143Z,98242.75
2022-09-27T22:23:36.627Z,98237.72
2022-09-27T22:26:26.631Z,98238.06
2022-09-27T22:29:15.052Z,98215.91
2022-09-27T22:32:04.412Z,98236.50
2022-09-27T22:34:53.213Z,98222.03
2022-09-27T22:37:41.259Z,98213.00
2022-09-27T22:40:29.171Z,98209.13
2022-09-27T22:43:17.289Z,98209.09
2022-09-27T22:46:05.534Z,98207.91
2022-09-27T22:48:55.640Z,98192.69
2022-09-27T22:51:43.627Z,98177.28
2022-09-27T22:54:31.527Z,98181.13
2022-09-27T22:57:19.420Z,98161.31
2022-09-27T23:00:08.220Z,98160.41
2022-09-27T23:02:56.509Z,98153.75
2022-09-27T23:05:45.921Z,98146.25
2022-09-27T23:08:35.197Z,98149.78
2022-09-27T23:11:23.763Z,98136.88
2022-09-27T23:14:12.095Z,98145.50
2022-09-27T23:17:00.266Z,98151.75
2022-09-27T23:19:48.162Z,98131.78
2022-09-27T23:22:37.441Z,98115.72
2022-09-27T23:25:25.880Z,98121.09
2022-09-27T23:28:14.165Z,98114.38
2022-09-27T23:31:08.368Z,98070.91
2022-09-27T23:33:57.895Z,98107.25
2022-09-27T23:36:45.741Z,98096.78
2022-09-27T23:39:34.986Z,98084.94
2022-09-27T23:42:22.939Z,98067.31
2022-09-27T23:45:11.143Z,98072.06
2022-09-27T23:47:59.044Z,98075.56
2022-09-27T23:50:48.152Z,98051.81
2022-09-27T23:53:35.985Z,98054.38
2022-09-27T23:56:25.813Z,98061.63
2022-09-27T23:59:13.779Z,98044.50
